Worsley, Canada
Current Conditions -  °F | °C
As of 10:00 PM on Thursday 30 Oct 2014 (Local Time) from CYPE Reporting Station
Few Clouds Few Clouds  
Wind Chill: 27°   Ceiling: Unl
Heat Index: 34°   Visibility: 15mi
Dew Point: 30°   Wind: 8mph
Humidity: 87%   Direction: 120°ESE
Pressure: 29.73"   Gusts: NA
Location:  56.52°N, 119.07°W
Report Text: CYPE 310400Z 12007KT 15SM FEW015 01/M01 A2973 RMK SF1 SLP095
Loading
Personal Weather Stations






























Interactive Weather Map
Tropical Storm Tracking
New forecast layout! Learn more

10-Day Weather Forecast

Advertisements
Track Severe Weather on mobile